Time;durP1;ratioP1;P1;durP2;ratioP2;P2;SDS_P1;SDS_P2;PMS_P1;PMS_P2;Temp;Humidity;BMP_temperature;BMP_pressure;BME280_temperature;BME280_humidity;BME280_pressure;Samples;Min_cycle;Max_cycle;Signal;HPM_P1;HPM_P2
2021/10/21 00:00:10;;;;;;;8.98;0.88;;;;;;;10.76;54.20;99082.69;5064350;28;20049;-65
2021/10/21 00:02:39;;;;;;;12.82;1.75;;;;;;;10.87;54.25;99076.78;5045285;28;20028;-64
2021/10/21 00:05:05;;;;;;;13.27;1.00;;;;;;;10.93;53.55;99073.72;5064325;28;20473;-66
2021/10/21 00:07:31;;;;;;;11.30;1.88;;;;;;;10.92;54.04;99066.00;5063172;28;20032;-65
2021/10/21 00:09:59;;;;;;;7.65;1.50;;;;;;;10.94;54.25;99056.25;5064500;28;20508;-66
2021/10/21 00:12:25;;;;;;;5.13;0.60;;;;;;;10.99;53.68;99047.13;5063888;28;20508;-65
2021/10/21 00:14:50;;;;;;;8.45;1.13;;;;;;;10.97;53.71;99030.75;5064803;28;20041;-65
2021/10/21 00:17:16;;;;;;;12.18;0.90;;;;;;;11.00;53.74;99022.69;5063166;28;20405;-64
2021/10/21 00:19:41;;;;;;;7.65;1.30;;;;;;;11.01;53.55;98995.59;5062861;28;20059;-65
2021/10/21 00:22:07;;;;;;;7.70;1.13;;;;;;;10.98;53.98;98985.34;5063657;28;20033;-65
2021/10/21 00:24:32;;;;;;;12.10;1.02;;;;;;;11.13;53.82;98966.88;5065907;28;20590;-65
2021/10/21 00:26:58;;;;;;;14.35;1.23;;;;;;;11.10;53.77;98967.13;5072286;28;20028;-64
2021/10/21 00:29:23;;;;;;;9.45;1.02;;;;;;;11.19;53.43;98956.81;5079361;28;20054;-65
2021/10/21 00:31:49;;;;;;;11.13;0.82;;;;;;;11.16;53.40;98956.22;5081412;28;20025;-64
2021/10/21 00:34:16;;;;;;;6.13;1.00;;;;;;;11.19;53.43;98945.53;5062811;28;20068;-65
2021/10/21 00:36:43;;;;;;;11.25;2.05;;;;;;;11.18;53.36;98933.41;5062345;28;20024;-64
2021/10/21 00:39:09;;;;;;;8.13;1.48;;;;;;;11.21;53.64;98918.31;5079327;28;20042;-64
2021/10/21 00:41:34;;;;;;;6.82;0.77;;;;;;;11.26;53.46;98915.34;5063554;28;20055;-65
2021/10/21 00:44:13;;;;;;;10.13;1.10;;;;;;;11.16;53.71;98909.16;5079820;28;20531;-67
2021/10/21 00:46:40;;;;;;;2.92;0.70;;;;;;;11.28;53.44;98896.94;5081128;28;20044;-65
2021/10/21 00:49:07;;;;;;;13.57;1.77;;;;;;;11.25;53.36;98891.00;5081158;28;20020;-65
2021/10/21 00:51:34;;;;;;;11.13;0.88;;;;;;;11.09;54.08;98887.84;5080812;28;20115;-65
2021/10/21 00:54:02;;;;;;;8.98;1.33;;;;;;;11.12;54.05;98868.50;5080826;28;20044;-65
2021/10/21 00:56:28;;;;;;;6.45;0.50;;;;;;;11.38;52.73;98851.69;5081129;28;20055;-65
2021/10/21 00:58:54;;;;;;;9.10;0.65;;;;;;;11.36;53.03;98853.59;5079057;28;20040;-64
2021/10/21 01:01:24;;;;;;;7.32;0.77;;;;;;;11.42;52.99;98852.31;5075626;28;20054;-65
2021/10/21 01:03:50;;;;;;;10.45;2.25;;;;;;;11.39;53.25;98842.06;5065391;28;20060;-65
2021/10/21 01:06:18;;;;;;;4.22;0.75;;;;;;;11.47;52.79;98834.47;5064826;28;20473;-65
2021/10/21 01:08:44;;;;;;;3.85;1.20;;;;;;;11.49;53.03;98847.44;5072905;28;20025;-66
2021/10/21 01:11:09;;;;;;;9.65;0.85;;;;;;;11.49;53.09;98844.81;5080279;28;20047;-65
2021/10/21 01:13:35;;;;;;;10.35;1.48;;;;;;;11.38;53.42;98843.84;5076399;28;20041;-65
2021/10/21 01:16:05;;;;;;;8.30;0.60;;;;;;;11.25;53.53;98835.25;5079968;28;20037;-65
2021/10/21 01:18:30;;;;;;;13.07;1.40;;;;;;;11.36;53.18;98821.38;5077101;28;20055;-65
2021/10/21 01:20:58;;;;;;;13.90;1.10;;;;;;;11.20;53.60;98819.09;5076582;28;20063;-65
2021/10/21 01:23:23;;;;;;;7.25;1.25;;;;;;;11.08;54.21;98817.38;5071156;28;20032;-66
2021/10/21 01:25:49;;;;;;;12.40;1.60;;;;;;;11.03;54.49;98794.19;5066387;28;20413;-68
2021/10/21 01:28:14;;;;;;;6.18;0.73;;;;;;;11.04;54.85;98788.88;5063489;28;20103;-66
2021/10/21 01:30:40;;;;;;;8.60;1.38;;;;;;;11.07;54.95;98777.34;5068941;28;20112;-66
2021/10/21 01:33:05;;;;;;;9.60;1.48;;;;;;;11.07;54.95;98758.22;5078378;28;20047;-65
2021/10/21 01:35:31;;;;;;;5.82;1.45;;;;;;;11.13;54.94;98742.91;5080675;28;20043;-65
2021/10/21 01:37:57;;;;;;;7.05;2.17;;;;;;;11.12;55.37;98735.97;5077921;28;20060;-65
2021/10/21 01:40:24;;;;;;;4.80;1.58;;;;;;;11.13;55.42;98721.13;5079827;28;20058;-66
2021/10/21 01:42:50;;;;;;;10.05;1.75;;;;;;;11.12;55.27;98706.41;5079685;28;20036;-65
2021/10/21 01:45:24;;;;;;;9.75;1.50;;;;;;;10.97;56.14;98690.94;5063025;28;20041;-64
2021/10/21 01:47:51;;;;;;;6.90;1.50;;;;;;;11.13;55.76;98689.75;5079000;28;20037;-64
2021/10/21 01:50:17;;;;;;;14.32;2.10;;;;;;;11.10;55.70;98682.97;5079573;28;20039;-65
2021/10/21 01:52:44;;;;;;;13.43;1.90;;;;;;;11.14;55.70;98670.50;5072755;28;20036;-66
2021/10/21 01:55:11;;;;;;;12.48;3.90;;;;;;;11.16;56.20;98652.94;5062256;28;20025;-66
2021/10/21 01:57:37;;;;;;;12.30;2.78;;;;;;;11.19;55.73;98642.22;5062114;28;20036;-66
2021/10/21 02:00:09;;;;;;;5.75;2.17;;;;;;;11.22;55.90;98626.31;5060160;28;20525;-66
2021/10/21 02:02:38;;;;;;;7.70;2.70;;;;;;;11.21;55.75;98629.84;5058709;28;20036;-65
2021/10/21 02:05:04;;;;;;;9.07;2.42;;;;;;;11.22;55.75;98629.75;5060398;28;20035;-65
2021/10/21 02:07:30;;;;;;;11.98;2.50;;;;;;;11.22;55.70;98623.69;5061199;28;20131;-66
2021/10/21 02:09:56;;;;;;;9.18;2.28;;;;;;;11.19;55.88;98621.31;5062364;28;20511;-65
2021/10/21 02:12:21;;;;;;;8.10;2.83;;;;;;;11.20;55.88;98622.97;5062843;28;20036;-65
2021/10/21 02:14:47;;;;;;;14.55;2.97;;;;;;;11.22;55.68;98618.47;5063267;28;20063;-66
2021/10/21 02:17:12;;;;;;;7.90;3.08;;;;;;;11.22;55.99;98613.25;5061159;28;20030;-66
2021/10/21 02:19:38;;;;;;;8.75;2.88;;;;;;;11.16;55.99;98598.03;5066125;28;20414;-66
2021/10/21 02:22:04;;;;;;;9.02;2.60;;;;;;;11.19;55.95;98584.69;5060471;28;20075;-67
2021/10/21 02:24:33;;;;;;;7.60;3.05;;;;;;;11.17;56.09;98560.44;5062784;28;20040;-66
2021/10/21 02:26:58;;;;;;;8.32;3.10;;;;;;;11.17;56.15;98502.94;5060141;28;20589;-66
2021/10/21 02:29:24;;;;;;;11.10;3.50;;;;;;;10.92;56.78;98421.25;5063665;28;20024;-66
2021/10/21 02:31:50;;;;;;;8.00;2.85;;;;;;;11.06;56.53;98441.06;5060683;28;20505;-66
2021/10/21 02:34:15;;;;;;;9.55;3.78;;;;;;;10.95;56.82;98468.06;5061402;28;20109;-65
2021/10/21 02:36:42;;;;;;;6.20;3.53;;;;;;;11.09;56.40;98463.53;5041760;28;20055;-66
2021/10/21 02:39:07;;;;;;;6.50;3.33;;;;;;;11.13;56.19;98444.00;5061643;28;20089;-67
2021/10/21 02:41:33;;;;;;;6.30;3.13;;;;;;;11.14;55.91;98416.91;5062524;28;20028;-65
2021/10/21 02:43:58;;;;;;;11.60;3.28;;;;;;;11.10;56.16;98405.06;5065876;28;20064;-65
2021/10/21 02:46:25;;;;;;;7.75;3.40;;;;;;;11.08;56.37;98393.88;5068739;28;20031;-67
2021/10/21 02:48:50;;;;;;;6.30;3.33;;;;;;;11.02;56.66;98375.16;5064384;28;20269;-66
2021/10/21 02:51:16;;;;;;;10.93;3.40;;;;;;;11.04;56.34;98365.41;5067916;28;20541;-68
2021/10/21 02:53:41;;;;;;;9.32;3.33;;;;;;;10.94;56.76;98346.19;5067939;28;20048;-68
2021/10/21 02:56:06;;;;;;;6.90;3.65;;;;;;;11.00;56.65;98340.47;5068656;28;20080;-65
2021/10/21 02:58:32;;;;;;;10.10;4.20;;;;;;;10.92;56.93;98331.59;5067877;28;20259;-65
2021/10/21 03:00:58;;;;;;;9.95;4.03;;;;;;;10.97;56.67;98319.81;5068251;28;20032;-65
2021/10/21 03:03:24;;;;;;;9.07;3.53;;;;;;;10.93;57.08;98315.78;5067453;28;20412;-65
2021/10/21 03:05:49;;;;;;;7.47;4.57;;;;;;;10.98;56.79;98305.78;5069374;28;20421;-65
2021/10/21 03:08:15;;;;;;;9.63;4.18;;;;;;;10.86;57.01;98309.41;5068640;28;20443;-66
2021/10/21 03:10:40;;;;;;;8.13;4.30;;;;;;;10.98;56.84;98295.31;5066692;28;20115;-65
2021/10/21 03:13:06;;;;;;;10.70;4.38;;;;;;;10.90;56.96;98276.81;5067665;28;20056;-65
2021/10/21 03:15:31;;;;;;;10.25;4.25;;;;;;;10.80;57.19;98275.91;5066456;28;20101;-66
2021/10/21 03:17:57;;;;;;;8.30;4.28;;;;;;;10.89;57.15;98277.78;5068009;28;20040;-66
2021/10/21 03:20:22;;;;;;;9.48;4.50;;;;;;;11.02;57.24;98261.94;5067433;28;20028;-66
2021/10/21 03:22:48;;;;;;;8.70;4.43;;;;;;;10.95;57.71;98272.06;5068716;28;20718;-65
2021/10/21 03:25:14;;;;;;;6.45;4.45;;;;;;;10.80;58.28;98265.47;5051008;28;20024;-66
2021/10/21 03:27:39;;;;;;;8.27;4.82;;;;;;;10.78;58.41;98255.13;5066859;28;20029;-66
2021/10/21 03:30:07;;;;;;;6.68;3.90;;;;;;;10.60;59.44;98264.47;5068927;28;20492;-67
2021/10/21 03:32:33;;;;;;;8.57;4.38;;;;;;;10.77;59.18;98232.59;5049959;28;20453;-67
2021/10/21 03:34:59;;;;;;;6.18;2.15;;;;;;;10.06;60.48;98254.91;5069636;28;20044;-66
2021/10/21 03:37:24;;;;;;;3.45;2.22;;;;;;;10.27;59.75;98268.03;5066642;28;20036;-67
2021/10/21 03:39:50;;;;;;;4.82;2.22;;;;;;;10.46;59.48;98289.09;5067437;28;20033;-65
2021/10/21 03:42:20;;;;;;;8.23;2.67;;;;;;;10.55;58.66;98264.84;5067712;28;20044;-66
2021/10/21 03:44:46;;;;;;;5.22;2.17;;;;;;;10.62;58.68;98279.06;5070858;28;20050;-66
2021/10/21 03:47:12;;;;;;;8.77;1.80;;;;;;;10.70;58.54;98301.13;5067716;28;20036;-66
2021/10/21 03:49:38;;;;;;;3.95;0.95;;;;;;;10.28;59.61;98301.88;5068276;28;20495;-66
2021/10/21 03:52:04;;;;;;;1.13;0.10;;;;;;;9.34;58.60;98277.81;5067624;28;20051;-65
2021/10/21 03:54:31;;;;;;;0.50;0.10;;;;;;;9.11;58.65;98268.28;5065011;28;20040;-65
2021/10/21 03:56:57;;;;;;;1.33;0.10;;;;;;;8.65;59.55;98256.91;5064901;28;20040;-66
2021/10/21 03:59:23;;;;;;;0.90;0.10;;;;;;;8.98;58.04;98237.97;5063552;28;20037;-65
2021/10/21 04:01:48;;;;;;;1.67;0.10;;;;;;;9.25;56.98;98260.25;5065234;28;20048;-66
2021/10/21 04:04:14;;;;;;;1.15;0.10;;;;;;;9.27;57.06;98255.75;5064430;28;20032;-66
2021/10/21 04:06:41;;;;;;;0.30;0.10;;;;;;;8.96;57.60;98258.09;5065978;28;20040;-65
2021/10/21 04:09:07;;;;;;;1.13;0.10;;;;;;;9.19;57.07;98255.53;5064706;28;20131;-65
2021/10/21 04:11:33;;;;;;;0.30;0.20;;;;;;;8.48;59.57;98259.91;5065122;28;20125;-65
2021/10/21 04:14:00;;;;;;;0.38;0.30;;;;;;;8.35;59.67;98265.16;5064396;28;20503;-65
2021/10/21 04:16:26;;;;;;;0.40;0.10;;;;;;;9.05;57.71;98279.16;5064214;28;20036;-65
2021/10/21 04:18:52;;;;;;;0.55;0.20;;;;;;;9.07;57.28;98256.44;5064326;28;20519;-65
2021/10/21 04:21:17;;;;;;;2.17;0.17;;;;;;;9.62;56.49;98262.63;5064129;28;20591;-66
2021/10/21 04:23:43;;;;;;;0.90;0.22;;;;;;;8.96;57.96;98246.81;5063298;28;20033;-65
2021/10/21 04:26:09;;;;;;;3.40;0.20;;;;;;;9.18;57.21;98246.03;5062988;28;20075;-65
2021/10/21 04:28:35;;;;;;;1.52;0.10;;;;;;;8.81;57.89;98241.00;5065489;28;20032;-64
2021/10/21 04:31:00;;;;;;;2.40;0.10;;;;;;;8.63;58.29;98243.16;5064682;28;20812;-65
2021/10/21 04:33:26;;;;;;;0.43;0.10;;;;;;;8.60;58.38;98219.09;5063165;28;20582;-65
2021/10/21 04:35:51;;;;;;;0.80;0.10;;;;;;;8.79;57.35;98227.25;5065091;28;20039;-64
2021/10/21 04:38:17;;;;;;;0.95;0.50;;;;;;;8.55;58.14;98235.06;5062043;28;20037;-64
2021/10/21 04:40:43;;;;;;;2.72;0.20;;;;;;;8.96;57.17;98234.63;5062501;28;20487;-64
2021/10/21 04:43:08;;;;;;;5.75;0.20;;;;;;;9.25;56.01;98233.34;5062634;28;20079;-64
2021/10/21 04:45:34;;;;;;;2.85;0.38;;;;;;;9.01;56.85;98221.25;5061894;28;20210;-64
2021/10/21 04:47:59;;;;;;;0.30;0.10;;;;;;;9.03;56.17;98231.53;5061873;28;20490;-64
2021/10/21 04:50:25;;;;;;;0.45;0.10;;;;;;;8.91;56.79;98231.53;5064725;28;20121;-65
2021/10/21 04:52:53;;;;;;;0.98;0.20;;;;;;;8.69;57.48;98221.84;5062965;28;20044;-64
2021/10/21 04:55:23;;;;;;;4.53;0.25;;;;;;;8.73;57.33;98225.91;5064826;28;20029;-64
2021/10/21 04:57:49;;;;;;;1.35;0.10;;;;;;;8.37;58.72;98237.25;5062679;28;20055;-65
2021/10/21 05:00:15;;;;;;;1.55;0.10;;;;;;;8.57;58.18;98223.59;5064374;28;20047;-65
2021/10/21 05:02:40;;;;;;;0.50;0.10;;;;;;;8.84;57.18;98224.31;5063008;28;20036;-65
2021/10/21 05:05:06;;;;;;;1.20;0.08;;;;;;;8.14;59.52;98224.13;5064140;28;20021;-65
2021/10/21 05:07:32;;;;;;;1.80;0.20;;;;;;;7.97;59.97;98228.88;5062087;28;20101;-65
2021/10/21 05:09:58;;;;;;;5.13;0.20;;;;;;;9.12;56.84;98230.84;5063126;28;20040;-65
2021/10/21 05:12:23;;;;;;;2.13;0.28;;;;;;;9.30;55.74;98242.50;5062799;28;20043;-65
2021/10/21 05:14:49;;;;;;;0.82;0.10;;;;;;;8.70;57.91;98235.72;5063932;28;20059;-65
2021/10/21 05:17:16;;;;;;;2.90;0.10;;;;;;;8.87;57.16;98231.88;5045172;28;20517;-65
2021/10/21 05:19:41;;;;;;;0.52;0.20;;;;;;;9.00;56.83;98230.00;5062861;28;20040;-66
2021/10/21 05:22:07;;;;;;;3.53;0.38;;;;;;;9.23;56.29;98228.28;5062991;28;20044;-65
2021/10/21 05:24:33;;;;;;;0.60;0.10;;;;;;;9.15;56.34;98223.63;5064837;28;20066;-65
2021/10/21 05:26:58;;;;;;;4.93;0.20;;;;;;;9.24;56.00;98227.31;5063307;28;20036;-65
2021/10/21 05:29:24;;;;;;;4.55;0.13;;;;;;;8.90;57.18;98216.84;5063562;28;20032;-66
2021/10/21 05:31:49;;;;;;;3.47;0.40;;;;;;;8.64;57.81;98217.94;5063620;28;20591;-65
2021/10/21 05:34:15;;;;;;;4.15;0.30;;;;;;;8.73;58.05;98223.31;5065363;28;20039;-65
2021/10/21 05:36:40;;;;;;;1.73;0.20;;;;;;;9.18;56.86;98227.78;5062218;28;20031;-65
2021/10/21 05:39:06;;;;;;;0.47;0.10;;;;;;;9.18;56.87;98226.00;5064569;28;20103;-66
2021/10/21 05:41:31;;;;;;;4.20;0.47;;;;;;;9.30;56.32;98239.88;5062471;28;20029;-66
2021/10/21 05:43:57;;;;;;;2.80;0.20;;;;;;;9.23;56.83;98238.72;5062826;28;20048;-65
2021/10/21 05:46:22;;;;;;;3.08;0.25;;;;;;;9.37;56.75;98237.63;5063915;28;20089;-67
2021/10/21 05:48:48;;;;;;;1.92;0.30;;;;;;;9.46;56.14;98246.53;5062879;28;20296;-66
2021/10/21 05:51:14;;;;;;;7.00;0.15;;;;;;;9.66;55.83;98243.22;5063423;28;20092;-65
2021/10/21 05:53:39;;;;;;;6.05;0.50;;;;;;;9.59;55.82;98247.25;5061145;28;20038;-65
2021/10/21 05:56:05;;;;;;;5.82;0.28;;;;;;;9.65;55.75;98257.19;5066262;28;20115;-65
2021/10/21 05:58:31;;;;;;;3.88;0.40;;;;;;;9.29;56.49;98248.63;5045411;28;20028;-66
2021/10/21 06:00:57;;;;;;;2.35;0.10;;;;;;;8.75;57.18;98265.69;5063107;28;20050;-65
2021/10/21 06:03:25;;;;;;;3.13;0.20;;;;;;;8.12;58.39;98279.81;5061778;28;20115;-65
2021/10/21 06:05:51;;;;;;;3.80;0.50;;;;;;;7.79;59.57;98294.25;5061972;28;20053;-69
2021/10/21 06:08:16;;;;;;;7.43;0.20;;;;;;;8.23;57.93;98302.50;5061584;28;20040;-65
2021/10/21 06:10:42;;;;;;;9.73;0.47;;;;;;;8.42;57.44;98323.63;5062493;28;20035;-65
2021/10/21 06:13:07;;;;;;;7.97;0.40;;;;;;;7.57;59.54;98346.06;5062520;28;20041;-66
2021/10/21 06:15:33;;;;;;;2.25;0.10;;;;;;;7.81;58.50;98361.75;5058477;28;20741;-65
2021/10/21 06:18:02;;;;;;;6.80;0.17;;;;;;;7.57;59.17;98367.69;5056030;28;20044;-64
2021/10/21 06:20:28;;;;;;;3.83;0.68;;;;;;;7.79;58.64;98381.84;5065147;28;20298;-66
2021/10/21 06:22:55;;;;;;;10.80;0.52;;;;;;;7.74;58.90;98395.16;5028420;28;20040;-66
2021/10/21 06:25:21;;;;;;;10.70;0.95;;;;;;;7.86;58.73;98404.72;5064422;28;20040;-65
2021/10/21 06:27:47;;;;;;;10.68;0.70;;;;;;;7.29;60.04;98418.88;5063669;28;20105;-65
2021/10/21 06:30:12;;;;;;;8.18;0.80;;;;;;;7.43;59.98;98423.16;5064262;28;20416;-65
2021/10/21 06:32:38;;;;;;;12.00;0.20;;;;;;;7.80;58.41;98438.09;5061976;28;20032;-65
2021/10/21 06:35:04;;;;;;;9.88;0.75;;;;;;;7.46;58.94;98443.75;5063183;28;20250;-67
2021/10/21 06:37:30;;;;;;;7.55;0.75;;;;;;;7.76;58.58;98460.91;5061734;28;20142;-66
2021/10/21 06:39:56;;;;;;;5.25;0.43;;;;;;;7.65;58.64;98479.81;5064170;28;20042;-65
2021/10/21 06:42:23;;;;;;;10.57;0.43;;;;;;;7.54;58.31;98487.44;5062832;28;20417;-66
2021/10/21 06:44:49;;;;;;;3.25;0.20;;;;;;;7.26;58.81;98502.19;5070481;28;20642;-65
2021/10/21 06:47:15;;;;;;;3.25;0.20;;;;;;;7.33;58.56;98490.50;5067464;28;20100;-65
2021/10/21 06:49:40;;;;;;;15.60;0.57;;;;;;;7.38;58.85;98505.81;5070687;28;20190;-65
2021/10/21 06:52:06;;;;;;;2.17;0.10;;;;;;;7.57;58.26;98518.47;5064795;28;20064;-64
2021/10/21 06:54:34;;;;;;;5.38;0.40;;;;;;;7.41;58.89;98528.97;5064317;28;20090;-64
2021/10/21 06:57:00;;;;;;;2.00;0.80;;;;;;;7.50;57.94;98533.59;5060983;28;20043;-67
2021/10/21 06:59:26;;;;;;;3.97;0.45;;;;;;;7.83;57.41;98547.97;5065882;28;20032;-63
2021/10/21 07:01:52;;;;;;;3.92;0.10;;;;;;;7.54;57.59;98565.41;5061726;28;20035;-65
2021/10/21 07:04:17;;;;;;;7.72;0.10;;;;;;;7.44;58.00;98577.31;5063353;28;20032;-67
2021/10/21 07:06:43;;;;;;;3.85;0.10;;;;;;;7.97;56.23;98593.88;5062840;28;20036;-65
2021/10/21 07:09:08;;;;;;;1.38;0.40;;;;;;;7.85;56.90;98605.09;5062270;28;20020;-65
2021/10/21 07:11:34;;;;;;;4.47;0.73;;;;;;;7.75;57.43;98620.44;5063807;28;20496;-65
2021/10/21 07:14:00;;;;;;;3.63;0.20;;;;;;;8.51;55.40;98637.16;5044376;28;20640;-65
2021/10/21 07:16:26;;;;;;;7.05;0.30;;;;;;;8.34;55.95;98646.94;5043791;28;20064;-65
2021/10/21 07:18:51;;;;;;;11.00;0.20;;;;;;;8.54;55.64;98650.81;5061805;28;20068;-66
2021/10/21 07:21:18;;;;;;;2.20;0.15;;;;;;;8.70;55.55;98670.63;5061469;28;20071;-65
2021/10/21 07:23:47;;;;;;;4.97;0.73;;;;;;;8.77;55.31;98671.91;5062860;28;20108;-65
2021/10/21 07:26:14;;;;;;;2.05;0.20;;;;;;;8.59;56.00;98678.31;5062453;28;20685;-66
2021/10/21 07:28:39;;;;;;;3.58;0.52;;;;;;;8.73;56.08;98686.06;5062180;28;20117;-64
2021/10/21 07:31:07;;;;;;;6.88;0.20;;;;;;;8.73;56.00;98693.88;5066317;28;20048;-65
2021/10/21 07:33:33;;;;;;;2.78;0.35;;;;;;;9.00;55.13;98705.97;5064968;28;20044;-66
2021/10/21 07:35:58;;;;;;;5.13;0.22;;;;;;;9.00;55.26;98708.59;5066667;28;20486;-65
2021/10/21 07:38:24;;;;;;;3.20;0.10;;;;;;;8.93;56.09;98724.63;5066180;28;20455;-64
2021/10/21 07:40:50;;;;;;;13.65;0.30;;;;;;;9.22;55.21;98728.81;5065910;28;20100;-65
2021/10/21 07:43:16;;;;;;;3.15;0.22;;;;;;;9.34;55.16;98736.63;5065867;28;20132;-65
2021/10/21 07:45:42;;;;;;;4.25;0.28;;;;;;;9.20;55.26;98747.16;5064302;28;20047;-65
2021/10/21 07:48:08;;;;;;;0.85;0.50;;;;;;;9.27;54.93;98745.78;5065187;28;20047;-65
2021/10/21 07:50:35;;;;;;;5.00;0.30;;;;;;;9.31;55.05;98762.06;5067682;28;20147;-65
2021/10/21 07:53:01;;;;;;;6.55;0.28;;;;;;;9.29;54.85;98766.53;5065635;28;20041;-67
2021/10/21 07:55:29;;;;;;;5.55;0.20;;;;;;;8.68;56.72;98781.88;5065601;28;20036;-64
2021/10/21 07:57:54;;;;;;;4.88;0.50;;;;;;;8.77;56.16;98786.50;5064574;28;20062;-65
2021/10/21 08:00:20;;;;;;;4.88;0.28;;;;;;;8.70;56.01;98796.47;5067654;28;20507;-64
2021/10/21 08:02:45;;;;;;;1.10;0.10;;;;;;;9.12;55.75;98809.38;5063926;28;20044;-65
2021/10/21 08:05:11;;;;;;;6.40;0.57;;;;;;;8.91;56.17;98835.91;5065995;28;20642;-65
2021/10/21 08:07:38;;;;;;;7.75;0.50;;;;;;;9.32;54.96;98829.75;5063205;28;20051;-64
2021/10/21 08:10:04;;;;;;;6.97;0.77;;;;;;;8.63;56.83;98851.63;5066375;28;20451;-65
2021/10/21 08:12:30;;;;;;;9.27;0.28;;;;;;;8.70;56.71;98861.56;5064178;28;20032;-65
2021/10/21 08:14:55;;;;;;;10.32;0.70;;;;;;;8.67;57.03;98872.19;5065252;28;20108;-66
2021/10/21 08:17:24;;;;;;;5.90;1.10;;;;;;;9.15;55.49;98884.75;5065178;28;20063;-64
2021/10/21 08:19:49;;;;;;;6.78;1.00;;;;;;;9.04;55.67;98898.50;5064485;28;20040;-66
2021/10/21 08:22:15;;;;;;;4.60;0.30;;;;;;;9.29;55.48;98908.13;5046218;28;20036;-65
2021/10/21 08:24:40;;;;;;;4.22;0.38;;;;;;;9.53;54.70;98912.69;5063995;28;20032;-65
2021/10/21 08:27:06;;;;;;;2.85;0.52;;;;;;;9.19;55.33;98925.34;5064767;28;20033;-64
2021/10/21 08:29:31;;;;;;;5.07;0.57;;;;;;;9.02;55.03;98931.63;5064796;28;20119;-65
2021/10/21 08:32:03;;;;;;;3.67;0.20;;;;;;;9.12;54.76;98942.28;5063028;28;20454;-65
2021/10/21 08:34:30;;;;;;;7.05;0.68;;;;;;;9.07;54.29;98954.78;5065683;28;20528;-64
2021/10/21 08:36:56;;;;;;;3.38;0.20;;;;;;;8.81;55.28;98970.31;5065380;28;20107;-65
2021/10/21 08:39:21;;;;;;;2.28;0.60;;;;;;;9.00;54.85;99050.75;5065033;28;20116;-65
2021/10/21 08:41:47;;;;;;;3.67;0.32;;;;;;;8.08;55.40;99022.47;5067417;28;20048;-65
2021/10/21 08:44:12;;;;;;;3.95;0.20;;;;;;;7.66;58.22;99032.66;5050595;28;20074;-65
2021/10/21 08:46:38;;;;;;;2.13;0.10;;;;;;;7.68;57.95;99043.00;5063992;28;20636;-65
2021/10/21 08:49:04;;;;;;;8.38;0.30;;;;;;;7.60;57.27;99038.25;5063635;28;20058;-65
2021/10/21 08:51:31;;;;;;;3.47;0.15;;;;;;;7.87;56.32;99046.22;5064948;28;20020;-65
2021/10/21 08:53:58;;;;;;;0.47;0.10;;;;;;;8.35;55.00;99051.22;5062901;28;20044;-67
2021/10/21 08:56:25;;;;;;;6.82;0.20;;;;;;;8.64;54.40;99057.28;5065838;28;20044;-65
2021/10/21 08:58:53;;;;;;;5.80;0.10;;;;;;;8.71;54.17;99068.19;5072551;28;20051;-65
2021/10/21 09:01:21;;;;;;;2.97;0.17;;;;;;;9.07;53.80;99075.50;5071307;28;20047;-65
2021/10/21 09:06:32;;;;;;;4.55;0.32;;;;;;;9.27;53.51;99108.13;5078155;28;20335;-67
2021/10/21 09:08:58;;;;;;;4.18;0.35;;;;;;;9.06;54.06;99115.53;5076389;28;20754;-65
2021/10/21 09:11:24;;;;;;;5.68;0.70;;;;;;;8.37;55.33;99132.66;5055749;28;20042;-64
2021/10/21 09:14:09;;;;;;;8.50;0.32;;;;;;;9.22;53.65;99146.69;5063643;28;20119;-65
2021/10/21 09:16:35;;;;;;;9.90;0.35;;;;;;;9.12;52.67;99146.44;5065084;28;20043;-65
2021/10/21 09:19:09;;;;;;;4.13;0.52;;;;;;;8.87;52.64;99164.47;5066226;28;20036;-65
2021/10/21 09:21:37;;;;;;;4.78;0.20;;;;;;;9.03;51.71;99161.78;5065412;28;20028;-65
2021/10/21 09:24:28;;;;;;;7.80;0.50;;;;;;;9.96;49.23;99163.78;5035626;28;20532;-65
2021/10/21 09:27:09;;;;;;;6.85;0.32;;;;;;;10.13;48.05;99180.97;5063554;28;20029;-64
2021/10/21 09:30:05;;;;;;;4.90;0.50;;;;;;;10.81;47.64;99187.78;5065355;28;20028;-65
2021/10/21 09:32:32;;;;;;;4.57;0.70;;;;;;;10.88;46.03;99197.81;5038513;28;20120;-65
2021/10/21 09:35:01;;;;;;;6.35;0.30;;;;;;;11.22;45.01;99209.44;5064310;28;20082;-65
2021/10/21 09:37:30;;;;;;;5.32;0.28;;;;;;;12.34;44.12;99221.59;5062486;28;20056;-64
2021/10/21 09:39:58;;;;;;;6.13;0.47;;;;;;;12.53;42.96;99232.34;5068956;28;20238;-65
2021/10/21 09:42:28;;;;;;;5.38;1.08;;;;;;;11.80;43.55;99244.63;5062955;28;20037;-65
2021/10/21 09:45:16;;;;;;;4.95;0.30;;;;;;;9.84;48.31;99268.13;5063891;28;20044;-65
2021/10/21 09:47:45;;;;;;;6.78;0.35;;;;;;;9.63;49.60;99271.06;5062602;28;20040;-65
2021/10/21 09:50:24;;;;;;;9.43;0.95;;;;;;;8.91;50.61;99272.81;5063748;28;20560;-65
2021/10/21 09:53:08;;;;;;;7.43;0.55;;;;;;;9.92;49.88;99298.03;5037515;28;20056;-65
2021/10/21 09:55:38;;;;;;;6.78;0.32;;;;;;;10.62;47.72;99290.06;5062900;28;20090;-65
2021/10/21 09:58:07;;;;;;;10.60;0.75;;;;;;;11.95;45.18;99307.31;5062799;28;20036;-65
2021/10/21 10:00:34;;;;;;;5.55;0.80;;;;;;;12.32;44.40;99316.00;5050719;28;20033;-65
2021/10/21 10:03:20;;;;;;;9.82;1.17;;;;;;;11.59;44.01;99316.75;5043365;28;20047;-66
2021/10/21 10:05:55;;;;;;;5.35;0.30;;;;;;;10.67;43.93;99335.97;5046122;28;20039;-64
2021/10/21 10:08:25;;;;;;;10.45;0.57;;;;;;;10.58;43.67;99346.06;5059577;28;20036;-65
2021/10/21 10:10:53;;;;;;;3.50;0.50;;;;;;;10.05;45.01;99363.34;5062990;28;20458;-64
2021/10/21 10:13:20;;;;;;;5.07;1.25;;;;;;;9.23;46.78;99392.56;5062774;28;20035;-65
2021/10/21 10:15:47;;;;;;;4.75;0.30;;;;;;;8.65;48.87;99376.72;5062049;28;20052;-65
2021/10/21 10:18:22;;;;;;;7.70;0.65;;;;;;;8.97;47.88;99393.16;5061442;28;20123;-64
2021/10/21 10:21:11;;;;;;;8.45;1.20;;;;;;;9.34;46.88;99398.00;5061339;28;20458;-65
2021/10/21 10:23:47;;;;;;;7.18;0.20;;;;;;;10.10;46.85;99390.00;5061474;28;20029;-65
2021/10/21 10:26:12;;;;;;;2.35;0.28;;;;;;;10.54;45.33;99404.66;5062286;28;20043;-65
2021/10/21 10:28:54;;;;;;;4.30;0.20;;;;;;;10.80;43.69;99410.84;5061728;28;20028;-65
2021/10/21 10:31:39;;;;;;;6.47;0.20;;;;;;;11.86;43.25;99427.41;5068474;28;20038;-65
2021/10/21 10:34:09;;;;;;;8.23;0.70;;;;;;;11.86;43.02;99424.81;5059637;28;20043;-65
2021/10/21 10:36:36;;;;;;;3.25;0.30;;;;;;;11.32;42.62;99424.09;5046048;28;20047;-66
2021/10/21 10:39:06;;;;;;;2.13;0.38;;;;;;;11.60;43.56;99436.19;5059553;28;20417;-68
2021/10/21 10:41:41;;;;;;;4.60;0.28;;;;;;;11.35;43.47;99443.06;5062297;28;20072;-65
2021/10/21 10:44:27;;;;;;;6.75;0.45;;;;;;;11.02;42.96;99449.56;5060217;28;20052;-66
2021/10/21 10:46:53;;;;;;;5.47;1.05;;;;;;;11.17;42.65;99449.47;5023990;28;20063;-66
2021/10/21 10:49:37;;;;;;;3.72;0.45;;;;;;;10.98;42.83;99461.13;5061310;28;20033;-66
2021/10/21 10:52:04;;;;;;;9.27;0.45;;;;;;;11.59;42.49;99473.75;5060883;28;20094;-65
2021/10/21 10:54:51;;;;;;;3.70;0.65;;;;;;;11.27;40.90;99468.88;5062218;28;20036;-66
2021/10/21 10:57:37;;;;;;;6.93;0.63;;;;;;;11.13;41.17;99482.00;5060502;28;20036;-67
2021/10/21 11:00:32;;;;;;;4.38;0.35;;;;;;;10.46;40.89;99474.00;5048304;28;20044;-66
2021/10/21 11:03:01;;;;;;;6.47;0.40;;;;;;;10.91;40.92;99486.00;5062424;28;20047;-67
2021/10/21 11:05:45;;;;;;;10.98;0.98;;;;;;;11.19;40.66;99489.44;5065573;28;20028;-66
2021/10/21 11:08:15;;;;;;;4.70;0.80;;;;;;;11.66;40.36;99498.56;5064813;28;20048;-66
2021/10/21 11:10:42;;;;;;;6.47;0.68;;;;;;;10.81;40.09;99505.75;5066372;28;20185;-66
2021/10/21 11:13:39;;;;;;;8.68;0.35;;;;;;;10.39;41.81;99521.41;5065044;28;20618;-66
2021/10/21 11:16:38;;;;;;;9.77;0.65;;;;;;;10.99;41.66;99529.94;5065879;28;20056;-65
2021/10/21 11:19:04;;;;;;;6.32;0.57;;;;;;;10.06;41.04;99534.72;5066067;28;20051;-64
2021/10/21 11:21:45;;;;;;;9.95;0.75;;;;;;;10.45;40.07;99535.84;5066533;28;20067;-66
2021/10/21 11:24:11;;;;;;;2.10;0.70;;;;;;;10.62;39.36;99545.28;5066685;28;20055;-67
2021/10/21 11:26:37;;;;;;;4.43;0.60;;;;;;;10.94;39.62;99550.31;5067912;28;20441;-66
2021/10/21 11:29:02;;;;;;;4.18;0.38;;;;;;;10.50;39.16;99553.84;5065018;28;20410;-63
2021/10/21 11:31:29;;;;;;;4.72;0.32;;;;;;;10.00;40.75;99566.38;5066475;28;20050;-63
2021/10/21 11:33:57;;;;;;;1.45;0.40;;;;;;;9.79;41.23;99574.53;5064604;28;20101;-67
2021/10/21 11:36:22;;;;;;;5.85;0.55;;;;;;;9.63;42.67;99583.28;5065220;28;20323;-65
2021/10/21 11:39:06;;;;;;;4.70;0.40;;;;;;;9.96;42.02;99585.75;5064475;28;20052;-65
2021/10/21 11:41:32;;;;;;;6.55;0.10;;;;;;;10.22;41.63;99597.31;5063806;28;20036;-65